aussie ACE2'S WEATHER STATIONaussie

Speaker Icon Turns Ambient Background Sounds ON/OFF
Select which page style from below(a cookie will remember your selection for future use for style)
Standard Style Theme Current Conditions Style Changer

Latitude S 35° 06' 39"   Longitude E 138° 31' 40"   Elevation 102 m

OBSERVATIONS  0 - 24  HOURS

00-24 HOURS 24-48 HOURS 48-72 HOURS 72-96 HOURS 96-120 HOURS Navigation Menu

Date/Time
WST
temperature
°C
Dew Point
°C
Humidity
%
Wind Speed
km/h
Wind Gust
km/h
Wind
Direction
Barometer
mb
Rain Today
mm
11/01:00am 15.9 11.3 74 6.1 17.3 1013.2 0.0
11/12:30am 16.0 10.8 71 5.0 12.2 1013.2 0.0
11/12:00am 16.1 10.2 68 6.1 15.8 1013.2 0.0
10/11:30pm 16.3 9.5 64 7.2 13.3 1013.2 0.0
10/11:00pm 16.1 10.0 67 3.6 15.8 1013.2 0.0
10/10:30pm 16.3 10.2 67 6.1 15.8 1013.2 0.0
10/10:00pm 16.4 10.0 66 8.6 15.8 1013.2 0.0
10/09:30pm 16.7 10.3 66 5.0 9.7 1013.2 0.0
10/09:00pm 17.3 10.7 65 3.6 9.7 1013.2 0.0
10/08:30pm 18.2 10.6 61 7.2 12.2 1013.2 0.0
10/08:00pm 19.6 9.8 53 2.5 17.3 1013.2 0.0
10/07:30pm 21.5 8.7 44 5.0 13.3 1013.2 0.0
10/07:00pm 21.6 8.5 43 5.0 7.2 1013.2 0.0
10/06:30pm 21.7 8.2 42 6.1 9.7 1013.2 0.0
10/06:00pm 22.4 8.5 41 5.0 12.2 1013.2 0.0
10/05:30pm 23.4 7.1 35 12.2 15.8 1013.2 0.0
10/05:00pm 24.4 6.7 32 3.6 18.4 1013.2 0.0
10/04:30pm 25.8 7.4 31 5.0 12.2 1013.2 0.0
10/04:00pm 27.2 7.6 29 7.2 11.2 1013.2 0.0
10/03:30pm 28.5 5.4 23 5.0 12.2 1013.2 0.0
10/03:00pm 28.6 5.5 23 5.0 14.8 1013.2 0.0
10/02:30pm 29.2 6.0 23 5.0 9.7 1013.2 0.0
10/02:00pm 28.8 5.6 23 8.6 12.2 1013.2 0.0
10/01:30pm 28.1 7.4 27 7.2 14.8 1013.2 0.0
10/01:00pm 28.2 9.0 30 5.0 9.7 1013.2 0.0
10/12:30pm 27.5 8.9 31 5.0 13.3 1013.2 0.0
10/12:00pm 26.5 9.8 35 5.0 11.2 1013.2 0.0
10/11:30am 25.4 8.8 35 7.2 12.2 1013.2 0.0
10/11:00am 26.1 9.0 34 3.6 11.2 1013.2 0.0
10/10:30am 24.7 9.8 39 5.0 11.2 1013.2 0.0
10/10:00am 23.6 9.6 41 6.1 14.8 1013.2 0.0
10/09:30am 20.7 10.5 52 1.1 14.8 1013.2 0.0
10/09:00am 22.0 10.8 49 2.5 13.3 1013.2 0.0
10/08:30am 21.2 11.3 53 3.6 18.4 1013.2 0.0
10/08:00am 19.9 11.1 57 3.6 12.2 1013.2 0.0
10/07:30am 19.0 11.1 60 5.0 9.7 1013.2 0.0
10/07:00am 15.9 11.1 73 3.6 7.2 1013.2 0.0
10/06:30am 14.5 10.7 78 2.5 8.6 1013.2 0.0
10/06:00am 14.1 10.5 79 1.1 6.1 1013.2 0.0
10/05:30am 14.1 10.7 80 5.0 11.2 1013.2 0.0
10/05:00am 14.0 10.6 80 1.1 6.1 1013.2 0.0
10/04:30am 14.0 10.6 80 1.1 8.6 1013.2 0.0
10/04:00am 13.7 10.5 81 2.5 6.1 1013.2 0.0
10/03:30am 13.7 10.5 81 3.6 8.6 1013.2 0.0
10/03:00am 13.6 10.2 80 2.5 6.1 1013.2 0.0
10/02:30am 13.8 10.2 79 2.5 6.1 1013.2 0.0
10/02:00am 14.0 9.8 76 1.1 5.0 1013.2 0.0
10/01:30am 13.7 9.2 74 1.1 3.6 1013.2 0.0
10/01:00am 14.3 9.3 72 0.0 5.0 1013.2 0.0
10/12:30am 14.8 9.6 71 2.5 7.2 1013.2 0.0

OBSERVATIONS  24 - 48  HOURS

00-24 HOURS 24-48 HOURS 48-72 HOURS 72-96 HOURS 96-120 HOURS Navigation Menu

Date/Time
WST
temperature
°C
Dew Point
°C
Humidity
%
Wind Speed
km/h
Wind Gust
km/h
Wind
Direction
Barometer
mb
Rain Today
mm
10/01:00am 14.3 9.3 72 0.0 5.0 1013.2 0.0
10/12:30am 14.8 9.6 71 2.5 7.2 1013.2 0.0
10/12:00am 14.7 9.1 69 1.1 5.0 1013.2 0.0
9/11:30pm 15.1 9.2 68 2.5 5.0 1013.2 0.0
9/11:00pm 15.8 9.7 67 3.6 8.6 1013.2 0.0
9/10:30pm 15.9 10.0 68 1.1 6.1 1013.2 0.0
9/10:00pm 16.3 9.7 65 1.1 7.2 1013.2 0.0
9/09:30pm 16.8 9.2 61 2.5 6.1 1013.2 0.0
9/09:00pm 17.3 9.7 61 3.6 8.6 1013.2 0.0
9/08:30pm 18.1 9.7 58 3.6 11.2 1013.2 0.0
9/08:00pm 19.1 10.1 56 2.5 7.2 1013.2 0.0
9/07:30pm 21.2 10.7 51 8.6 13.3 1013.2 0.0
9/07:00pm 21.8 11.5 52 5.0 15.8 1013.2 0.0
9/06:30pm 23.1 11.2 47 7.2 15.8 1013.2 0.0
9/06:00pm 23.2 10.6 45 5.0 12.2 1013.2 0.0
9/05:30pm 25.4 10.8 40 5.0 11.2 1013.2 0.0
9/05:00pm 29.7 10.8 31 3.6 9.7 1013.2 0.0
9/04:30pm 30.1 11.1 31 2.5 12.2 1013.2 0.0
9/04:00pm 30.4 11.4 31 3.6 9.7 1013.2 0.0
9/03:30pm 28.7 10.9 33 7.2 11.2 1013.2 0.0
9/03:00pm 29.7 13.9 38 5.0 6.1 1013.2 0.0
9/02:30pm 29.5 14.1 39 5.0 12.2 1013.2 0.0
9/02:00pm 30.9 15.4 39 5.0 9.7 1013.2 0.0
9/01:30pm 30.3 15.2 40 5.0 9.7 1013.2 0.0
9/01:00pm 29.5 14.9 41 6.1 11.2 1013.2 0.0
9/12:30pm 30.4 15.7 41 2.5 7.2 1013.2 0.0
9/12:00pm 28.6 14.8 43 2.5 9.7 1013.2 0.0
9/11:30am 27.1 15.5 49 5.0 7.2 1013.2 0.0
9/11:00am 27.2 15.9 50 5.0 8.6 1013.2 0.0
9/10:30am 26.7 14.8 48 3.6 6.1 1013.2 0.0
9/10:00am 23.6 14.0 55 2.5 6.1 1013.2 0.0
9/09:30am 21.3 13.5 61 3.6 8.6 1013.2 0.0
9/09:00am 20.6 13.8 65 1.1 6.1 1013.2 0.0
9/08:30am 20.1 13.3 65 5.0 9.7 1013.2 0.0
9/08:00am 19.8 14.2 70 3.6 7.2 1013.2 0.0
9/07:30am 17.8 13.1 74 11.2 17.3 1013.2 0.0
9/07:00am 16.1 13.0 82 2.5 13.3 1013.2 0.0
9/06:30am 15.5 12.8 84 2.5 9.7 1013.2 0.0
9/06:00am 15.2 12.7 85 3.6 11.2 1013.2 0.0
9/05:30am 15.5 13.0 85 6.1 9.7 1013.2 0.0
9/05:00am 15.6 12.9 84 7.2 17.3 1013.2 0.0
9/04:30am 15.7 13.0 84 8.6 18.4 1013.2 0.0
9/04:00am 15.6 13.1 85 8.6 13.3 1013.2 0.0
9/03:30am 15.7 13.2 85 7.2 14.8 1013.2 0.0
9/03:00am 15.7 13.4 86 7.2 17.3 1013.2 0.0
9/02:30am 15.7 13.0 84 8.6 17.3 1013.2 0.0
9/02:00am 15.7 13.0 84 7.2 23.4 1013.2 0.0
9/01:30am 15.7 13.0 84 9.7 14.8 1013.2 0.0
9/01:00am 15.7 12.8 83 3.6 13.3 1013.2 0.0
9/12:30am 15.7 12.6 82 12.2 20.9 1013.2 0.0

OBSERVATIONS  48 - 72  HOURS

00-24 HOURS 24-48 HOURS 48-72 HOURS 72-96 HOURS 96-120 HOURS Navigation Menu

Date/Time
WST
temperature
°C
Dew Point
°C
Humidity
%
Wind Speed
km/h
Wind Gust
km/h
Wind
Direction
Barometer
mb
Rain Today
mm
9/01:00am 15.7 12.8 83 3.6 13.3 1013.2 0.0
9/12:30am 15.7 12.6 82 12.2 20.9 1013.2 0.0
9/12:00am 15.8 12.6 81 12.2 15.8 1013.2 0.0
8/11:30pm 16.0 12.7 81 7.2 12.2 1013.2 1.8
8/11:00pm 16.2 12.8 80 6.1 14.8 1013.2 1.8
8/10:30pm 16.2 12.8 80 5.0 18.4 1013.2 1.8
8/10:01pm 16.1 12.7 80 3.6 17.3 1013.2 1.8
8/09:30pm 16.3 12.5 78 5.0 14.8 1013.2 1.8
8/09:00pm 16.5 12.3 76 6.1 12.2 1013.2 1.8
8/08:30pm 16.9 12.2 74 8.6 22.0 1013.2 1.8
8/08:00pm 17.2 12.5 74 5.0 27.0 1013.2 1.8
8/07:31pm 18.4 12.8 70 5.0 7.2 1013.2 1.8
8/07:00pm 18.7 12.9 69 5.0 11.2 1013.2 1.8
8/06:30pm 20.8 13.5 63 6.1 13.3 1013.2 1.8
8/06:00pm 21.1 13.5 62 7.2 14.8 1013.2 1.8
8/05:30pm 20.7 14.4 67 3.6 12.2 1013.2 1.8
8/05:00pm 20.2 14.3 69 6.1 15.8 1013.2 1.8
8/04:30pm 21.3 14.7 66 8.6 15.8 1013.2 1.8
8/04:00pm 22.0 15.6 67 3.6 7.2 1013.2 1.8
8/03:30pm 22.9 15.3 62 5.0 11.2 1013.2 1.8
8/03:00pm 22.8 15.4 63 5.0 8.6 1013.2 1.5
8/02:30pm 23.6 16.2 63 3.6 6.1 1013.2 1.5
8/02:00pm 23.0 16.8 68 2.5 7.2 1013.2 1.5
8/01:30pm 21.0 16.4 75 2.5 8.6 1013.2 1.5
8/01:00pm 21.1 17.1 78 2.5 11.2 1013.2 1.5
8/12:30pm 19.1 15.6 80 5.0 11.2 1013.2 1.5
8/12:00pm 21.6 16.6 73 3.6 7.2 1013.2 1.2
8/11:30am 21.3 16.7 75 2.5 5.0 1013.2 1.2
8/11:00am 20.6 16.8 79 3.6 9.7 1013.2 1.2
8/11:00am 20.6 16.8 79 3.6 9.7 1013.2 1.2
8/10:21am 20.4 17.6 84 2.5 3.6 1013.2 1.2
8/09:51am 19.8 17.8 88 0.0 1.1 1013.2 1.2
8/09:21am 18.9 17.2 90 3.6 6.1 1013.2 1.2
8/08:51am 18.2 16.7 91 3.6 5.0 1013.2 1.2
8/08:21am 18.6 16.0 85 2.5 3.6 1013.2 0.6
8/07:51am 19.4 16.6 84 3.6 6.1 1013.2 0.0
8/07:21am 19.8 16.2 80 2.5 3.6 1013.2 0.0
8/06:51am 19.7 16.0 79 2.5 3.6 1013.2 0.0
8/06:21am 19.2 15.9 81 2.5 3.6 1013.2 0.0
8/05:51am 19.6 16.1 80 6.1 9.7 1013.2 0.0
8/05:21am 21.0 15.8 72 1.1 2.5 1013.2 0.0
8/04:51am 22.7 14.5 60 0.0 0.0 1013.2 0.0
8/04:00am 22.3 15.2 64 1.1 2.5 1013.2 0.0
8/03:30am 22.3 15.2 64 2.5 7.2 1013.2 0.0
8/03:00am 22.4 15.0 63 8.6 13.3 1013.2 0.0
8/02:30am 22.3 14.9 63 3.6 13.3 1013.2 0.0
8/02:00am 22.2 14.8 63 3.6 9.7 1013.2 0.0
8/01:30am 22.1 15.0 64 6.1 12.2 1013.2 0.0
8/01:00am 21.8 14.7 64 3.6 6.1 1013.2 0.0
8/12:30am 22.0 14.9 64 1.1 2.5 1013.2 0.0

OBSERVATIONS  72 - 96  HOURS

00-24 HOURS 24-48 HOURS 48-72 HOURS 72-96 HOURS 96-120 HOURS Navigation Menu

Date/Time
WST
temperature
°C
Dew Point
°C
Humidity
%
Wind Speed
km/h
Wind Gust
km/h
Wind
Direction
Barometer
mb
Rain Today
mm
8/01:00am 21.8 14.7 64 3.6 6.1 1013.2 0.0
8/12:30am 22.0 14.9 64 1.1 2.5 1013.2 0.0
8/12:30am 22.0 14.9 64 1.1 2.5 1013.2 0.0
7/11:51pm 22.7 14.5 60 2.5 3.6 1013.2 0.0
7/11:21pm 23.0 14.3 58 5.0 7.2 1013.2 0.0
7/10:51pm 23.0 14.0 57 3.6 5.0 1013.2 0.0
7/10:21pm 23.1 14.1 57 3.6 5.0 1013.2 0.0
7/09:51pm 23.4 13.8 55 2.5 3.6 1013.2 0.0
7/09:21pm 23.8 13.6 53 5.0 7.2 1013.2 0.0
7/08:51pm 24.7 13.3 49 2.5 5.0 1013.2 0.0
7/08:21pm 26.1 12.9 44 6.1 9.7 1013.2 0.0
7/07:51pm 26.1 13.2 45 0.0 2.5 1013.2 0.0
7/07:21pm 26.1 14.2 48 1.1 2.5 1013.2 0.0
7/06:51pm 32.4 8.6 23 0.0 0.0 1013.2 0.0
7/06:00pm 33.6 7.6 20 2.5 5.0 1013.2 0.0
7/05:30pm 33.0 7.1 20 1.1 6.1 1013.2 0.0
7/05:30pm 33.0 7.1 20 1.1 6.1 1013.2 0.0
7/04:30pm 32.4 8.6 23 9.7 17.3 1013.2 0.0
7/04:30pm 32.4 8.6 23 9.7 17.3 1013.2 0.0
7/03:30pm 35.4 11.1 23 11.2 15.8 1013.2 0.0
7/03:00pm 38.0 11.2 20 3.6 8.6 1013.2 0.0
7/02:50pm 38.1 11.2 20 5.0 8.6 1013.2 0.0
7/02:00pm 39.9 12.0 19 6.1 12.2 1013.2 0.0
7/01:30pm 39.0 8.7 16 5.0 19.4 1013.2 0.0
7/01:00pm 35.4 11.1 23 7.2 15.8 1013.2 0.0
7/12:30pm 34.8 10.0 22 3.6 11.2 1013.2 0.0
7/12:00pm 35.0 9.4 21 7.2 11.2 1013.2 0.0
7/11:30am 33.8 8.5 21 6.1 19.4 1013.2 0.0
7/11:00am 33.4 7.4 20 3.6 11.2 1013.2 0.0
7/11:00am 33.4 7.4 20 3.6 11.2 1013.2 0.0
7/10:21am 21.8 14.7 64 3.6 6.1 1013.2 0.0
7/09:30am 32.6 6.8 20 6.1 15.8 1013.2 0.0
7/09:00am 30.1 7.9 25 2.5 8.6 1013.2 0.0
7/08:30am 31.0 8.1 24 2.5 18.4 1013.2 0.0
7/08:00am 32.3 6.5 20 7.2 14.8 1013.2 0.0
7/08:00am 32.3 6.5 20 7.2 14.8 1013.2 0.0
7/07:21am 31.1 -0.6 13 13.3 22.0 1013.2 0.0
7/06:51am 31.2 -0.5 13 6.1 9.7 1013.2 0.0
7/06:21am 30.6 0.1 14 8.6 13.3 1013.2 0.0
7/05:51am 29.9 -0.5 14 5.0 8.6 1013.2 0.0
7/05:21am 29.7 -0.7 14 2.5 5.0 1013.2 0.0
7/04:51am 28.9 -1.3 14 3.6 5.0 1013.2 0.0
7/04:21am 28.5 -2.6 13 3.6 5.0 1013.2 0.0
7/03:51am 29.4 -0.9 14 3.6 6.1 1013.2 0.0
7/03:21am 27.7 2.7 20 0.0 1.1 1013.2 0.0
7/02:51am 29.6 -1.8 13 1.1 2.5 1013.2 0.0
7/02:21am 30.0 -1.4 13 5.0 8.6 1013.2 0.0
7/01:51am 29.7 -1.7 13 6.1 11.2 1013.2 0.0
7/01:21am 30.1 -1.4 13 2.5 3.6 1013.2 0.0
7/12:51am 29.6 4.3 20 7.2 11.2 1013.2 0.0

OBSERVATIONS  96 - 120  HOURS

00-24 HOURS 24-48 HOURS 48-72 HOURS 72-96 HOURS 96-120 HOURS Navigation Menu

Date/Time
WST
temperature
°C
Dew Point
°C
Humidity
%
Wind Speed
km/h
Wind Gust
km/h
Wind
Direction
Barometer
mb
Rain Today
mm
7/01:21am 30.1 -1.4 13 2.5 3.6 1013.2 0.0
7/12:51am 29.6 4.3 20 7.2 11.2 1013.2 0.0
7/12:00am 29.0 3.8 20 3.6 7.2 1013.2 0.0
6/11:30pm 29.7 4.4 20 6.1 11.2 1013.2 0.0
6/11:00pm 29.1 3.9 20 3.6 6.1 1013.2 0.0
6/10:30pm 28.5 4.1 21 2.5 3.6 1013.2 0.0
6/10:00pm 28.5 4.1 21 5.0 6.1 1013.2 0.0
6/09:30pm 28.1 3.7 21 2.5 5.0 1013.2 0.0
6/09:00pm 28.5 5.4 23 2.5 3.6 1013.2 0.0
6/08:30pm 30.8 -0.8 13 0.0 0.0 1013.2 0.0
6/08:00pm 34.1 3.8 15 0.0 0.0 1013.2 0.0
6/07:30pm 36.4 5.7 15 0.0 2.5 1013.2 0.0
6/07:30pm 36.4 5.7 15 0.0 2.5 1013.2 0.0
6/06:52pm 42.5 5.9 11 0.0 1.1 1013.2 0.0
6/06:22pm 42.5 5.9 11 0.0 1.1 1013.2 0.0
6/05:52pm 43.3 6.5 11 2.5 3.6 1013.2 0.0
6/05:22pm 43.5 6.6 11 0.0 1.1 1013.2 0.0
6/04:52pm 43.1 6.3 11 1.1 3.6 1013.2 0.0
6/04:00pm 42.6 6.0 11 2.5 7.2 1013.2 0.0
6/03:30pm 42.2 5.7 11 2.5 6.1 1013.2 0.0
6/03:00pm 41.2 4.9 11 3.6 9.7 1013.2 0.0
6/02:30pm 41.0 4.8 11 2.5 5.0 1013.2 0.0
6/02:00pm 40.7 4.5 11 3.6 8.6 1013.2 0.0
6/01:30pm 40.4 4.3 11 2.5 8.6 1013.2 0.0
6/01:00pm 39.2 3.4 11 3.6 8.6 1013.2 0.0
6/12:30pm 39.4 3.5 11 5.0 6.1 1013.2 0.0
6/12:00pm 39.4 3.5 11 1.1 6.1 1013.2 0.0
6/11:30am 38.5 2.9 11 3.6 7.2 1013.2 0.0
6/11:00am 39.6 3.7 11 3.6 8.6 1013.2 0.0
6/10:30am 38.4 2.8 11 3.6 8.6 1013.2 0.0
6/10:00am 37.5 2.1 11 7.2 11.2 1013.2 0.0
6/09:30am 36.5 5.7 15 5.0 14.8 1013.2 0.0
6/09:00am 35.4 3.9 14 9.7 14.8 1013.2 0.0
6/08:30am 34.5 3.2 14 9.7 15.8 1013.2 0.0
6/08:00am 33.2 2.1 14 6.1 17.3 1013.2 0.0
6/07:30am 32.7 0.7 13 2.5 5.0 1013.2 0.0
6/07:00am 24.5 8.5 36 7.2 11.2 1013.2 0.0
6/06:30am 24.5 8.5 36 7.2 11.2 1013.2 0.0
6/06:00am 24.5 8.5 36 7.2 11.2 1013.2 0.0
6/05:30am 24.5 8.5 36 7.2 11.2 1013.2 0.0
6/05:00am 24.5 8.5 36 7.2 11.2 1013.2 0.0
6/04:30am 24.5 8.5 36 7.2 11.2 1013.2 0.0
6/04:00am 24.5 8.5 36 7.2 11.2 1013.2 0.0
6/03:30am 24.5 8.5 36 7.2 11.2 1013.2 0.0
6/03:00am 24.5 8.5 36 7.2 11.2 1013.2 0.0
6/02:30am 24.5 8.5 36 7.2 11.2 1013.2 0.0
6/02:00am 24.5 8.5 36 7.2 11.2 1013.2 0.0
6/01:30am 24.5 8.5 36 7.2 11.2 1013.2 0.0
6/01:00am 24.5 8.5 36 7.2 11.2 1013.2 0.0
6/12:30am 24.8 7.9 34 8.6 14.8 1013.2 0.0

00-24 HOURS 24-48 HOURS 48-72 HOURS 72-96 HOURS 96-120 HOURS Navigation Menu


PLEASE CONSIDER LIKING/SHARING ON FACEBOOK WITH LINK ABOVE
THANK YOU.

Check out my video archive on my YouTube channel which has all my time-lapse videos created
Please feel free to donate to help with improvements and keep this site going with the link below(PayPal)
Cumulus Top Weather Sites World Weather Websites Paulen Top 100 Weatherstation List

Page updated 11/12/2018 1:00 AM
powered by Cumulusv1.9.4 (1099)
Free counters!
Insect leftPhyllium MonteithiInsect Right
Visit my FaceBook group : Australian Leaf Insect Care/Information Sharing


Speaker Icon Turns Ambient Background Sounds ON/OFF